Strathcarron, United Kingdom
Current Conditions -  °F | °C
As of 2:20 PM on Monday 26 Jan 2015 (Local Time) from EGPL Reporting Station
Rain Showers Rain Showers  
Wind Chill: 34°   Ceiling: Unl
Heat Index: 43°   Visibility: 6mi
Dew Point: 39°   Wind: 23mph
Humidity: 87%   Direction: 280°W
Pressure: 30.12"   Gusts: NA
Location:  57.41°N, 5.81°W
Report Text: EGPL 261420Z 28020KT 9999 VCSH FEW010CB SCT032 06/04 Q1020
Loading
Personal Weather Stations






























Interactive Weather Map New forecast layout! Learn more

10-Day Weather Forecast

Advertisements
Track Severe Weather on mobile